Huntimer, South Dakota
Current Conditions -  °F | °C
As of 9:10 PM on Thursday 27 Nov 2014 (Local Time) from KMDS Reporting Station
Overcast Overcast  
Wind Chill: -5°   Ceiling: 10000
Heat Index: 12°   Visibility: 10mi
Dew Point:   Wind: 17mph
Humidity: 85%   Direction: 160°SSE
Pressure: 30.04"   Gusts: 23mph
Location:  43.8049°N, 97.0095°W
Report Text: KMDS 280310Z AUTO 16015G20KT 10SM OVC100 M11/M13 A3004 RMK AO2
Loading
Personal Weather Stations






























Interactive Weather Map New forecast layout! Learn more

10-Day Weather Forecast

Advertisements
Track Severe Weather on mobile